Vision — WDF6306 — position and weather

sailwx.info

Track history (hours):
 
Tides and Currents Weather Stations Pressure Air Temp Water Temp Dewpoint Dewpoint Depression Visibility Wind Speed Wind Dir Waves Ship Positions

Vision

Owner: INTREPID SHIP MANAGEMENT, JACKSONVILLE, FL. More information available from US FCC via Universal Licensing System and Coast Guard Vessel Documentation Center.

Last reported at 2015-Mar-29 04:07 UTC. Time now 2015-Mar-29 06:10 UTC.
Position N 45°47' W 125°47'.

Length 199 m; draft 8.7 m.

Type: Towing. MMSI: 366904000.

Date/timePositionNaut miles runAvg speedWind from/ knotsBaromVisibWave heightAir tempDewpointWater temp
2015-Mar-29 04:07N 45°47' W 125°47'14910.1
2015-Mar-28 13:26N 48°14' W 125°18'9 9.7
2015-Mar-28 12:33N 48°21' W 125°10'10 9.9
2015-Mar-28 11:33N 48°29' W 125°03'9 8.7
2015-Mar-28 10:33N 48°31' W 124°50'9 8.7
2015-Mar-28 09:33N 48°29' W 124°37'9 9.2
2015-Mar-28 08:33N 48°25' W 124°24'1010.0
2015-Mar-28 07:33N 48°21' W 124°10'1110.5
2015-Mar-28 06:33N 48°17' W 123°56'1110.5
2015-Mar-28 05:30N 48°16' W 123°40'9 9.6
2015-Mar-28 04:33N 48°13' W 123°27'6 6.1
2015-Mar-28 03:33N 48°08' W 123°20'1010.0
2015-Mar-28 02:33N 48°15' W 123°09'1111.6
2015-Mar-28 01:33N 48°22' W 122°55'1212.4
2015-Mar-28 00:33N 48°31' W 122°42'5 5.0
2015-Mar-27 23:33N 48°31' W 122°35'0 0.0
2015-Mar-27 22:32N 48°31' W 122°35'0 0.0
2015-Mar-27 21:32N 48°31' W 122°35'0 0.0
2015-Mar-27 20:26N 48°31' W 122°35'0 0.0
2015-Mar-27 19:32N 48°31' W 122°35'0 0.0
2015-Mar-27 18:32N 48°31' W 122°35'0 0.0
2015-Mar-27 17:14N 48°31' W 122°35'0 0.0
2015-Mar-27 16:32N 48°31' W 122°35'0 0.0
2015-Mar-27 15:26N 48°31' W 122°35'0 0.0
2015-Mar-27 14:32N 48°31' W 122°35'0 0.0
2015-Mar-27 13:32N 48°31' W 122°35'0 0.0
2015-Mar-27 12:32N 48°31' W 122°35'0 0.0
2015-Mar-27 11:32N 48°31' W 122°35'0 0.0
2015-Mar-27 10:32N 48°31' W 122°35'0 0.0
2015-Mar-27 09:32N 48°31' W 122°35'0 0.0
2015-Mar-27 08:32N 48°31' W 122°35'0 0.0
2015-Mar-27 07:32N 48°31' W 122°35'0 0.0
2015-Mar-27 06:32N 48°31' W 122°35'0 0.0
2015-Mar-27 05:32N 48°31' W 122°35'0 0.0
2015-Mar-27 04:32N 48°31' W 122°35'0 0.0
2015-Mar-27 03:32N 48°31' W 122°35'0 0.0
2015-Mar-27 02:32N 48°31' W 122°35'0 0.0
2015-Mar-27 01:20N 48°31' W 122°35'0 0.0
2015-Mar-27 00:32N 48°31' W 122°35'0 0.0
2015-Mar-26 23:32N 48°31' W 122°35'0 0.0
2015-Mar-26 22:32N 48°31' W 122°35'0 0.0
2015-Mar-26 21:32N 48°31' W 122°35'0 0.0
2015-Mar-26 20:32N 48°31' W 122°35'0 0.0
2015-Mar-26 19:32N 48°31' W 122°35'0 0.0
2015-Mar-26 18:32N 48°31' W 122°35'0 0.0
2015-Mar-26 17:32N 48°31' W 122°35'0 0.0
2015-Mar-26 16:32N 48°31' W 122°35'0 0.0
2015-Mar-26 15:32N 48°31' W 122°35'0 0.0
2015-Mar-26 14:32N 48°31' W 122°35'0 0.0
2015-Mar-26 13:32N 48°31' W 122°35'0 0.0
2015-Mar-26 12:32N 48°31' W 122°35'0 0.0
2015-Mar-26 11:32N 48°31' W 122°35'0 0.0
2015-Mar-26 10:32N 48°31' W 122°35'0 0.0
2015-Mar-26 09:32N 48°31' W 122°35'0 0.0
2015-Mar-26 08:32N 48°31' W 122°35'0 0.0
2015-Mar-26 07:32N 48°31' W 122°35'0 0.0
2015-Mar-26 06:32N 48°31' W 122°35'0 0.0
2015-Mar-26 05:32N 48°31' W 122°35'0 0.0
2015-Mar-26 04:32N 48°31' W 122°35'0 0.0
2015-Mar-26 03:32N 48°31' W 122°35'0 0.0
2015-Mar-26 02:32N 48°31' W 122°35'0 0.0
2015-Mar-26 01:26N 48°31' W 122°35'0 0.0
2015-Mar-26 00:32N 48°31' W 122°35'0 0.0
2015-Mar-25 23:32N 48°31' W 122°35'0 0.0
2015-Mar-25 22:26N 48°31' W 122°35'0 0.0
2015-Mar-25 21:32N 48°31' W 122°35'0 0.0
2015-Mar-25 20:32N 48°31' W 122°35'0 0.0
2015-Mar-25 19:32N 48°31' W 122°35'0 0.0
2015-Mar-25 18:32N 48°31' W 122°35'0 0.0
2015-Mar-25 17:26N 48°31' W 122°35'0 0.0
2015-Mar-25 16:20N 48°31' W 122°35'0 0.0
2015-Mar-25 15:32N 48°31' W 122°35'0 0.0
2015-Mar-25 14:32N 48°31' W 122°35'0 0.0
2015-Mar-25 13:32N 48°31' W 122°35'0 0.0
2015-Mar-25 12:32N 48°31' W 122°35'0 0.0
2015-Mar-25 11:32N 48°31' W 122°35'0 0.0
2015-Mar-25 10:32N 48°31' W 122°35'0 0.0
2015-Mar-25 09:32N 48°31' W 122°35'0 0.0
2015-Mar-25 08:32N 48°31' W 122°35'0 0.0
2015-Mar-25 07:32N 48°31' W 122°35'0 0.0
2015-Mar-25 06:26N 48°31' W 122°35'0 0.0
2015-Mar-25 05:32N 48°31' W 122°35'0 0.0
2015-Mar-25 04:32N 48°31' W 122°35'0 0.0
2015-Mar-25 03:32N 48°31' W 122°35'0 0.0
2015-Mar-25 02:32N 48°31' W 122°35'0 0.0
2015-Mar-25 01:32N 48°31' W 122°35'0 0.0
2015-Mar-25 00:32N 48°31' W 122°35'0 0.0
2015-Mar-24 23:32N 48°31' W 122°35'0 0.0
2015-Mar-24 22:32N 48°31' W 122°35'0 0.0
2015-Mar-24 21:32N 48°31' W 122°35'0 0.0
2015-Mar-24 20:32N 48°31' W 122°35'0 0.0
2015-Mar-24 19:32N 48°31' W 122°35'0 0.0
2015-Mar-24 18:32N 48°31' W 122°35'0 0.0
2015-Mar-24 17:32N 48°31' W 122°35'0 0.0
2015-Mar-24 16:32N 48°31' W 122°35'0 0.0
2015-Mar-24 15:32N 48°31' W 122°35'0 0.0
2015-Mar-24 14:32N 48°31' W 122°35'3 2.6
2015-Mar-24 13:34N 48°31' W 122°38'1212.0
2015-Mar-24 12:34N 48°23' W 122°51'1313.1
2015-Mar-24 11:34N 48°15' W 123°08'1312.7
2015-Mar-24 10:33N 48°08' W 123°23'2 1.8
2015-Mar-24 09:33N 48°08' W 123°26'0 0.0
2015-Mar-24 08:33N 48°08' W 123°26'0 0.1
2015-Mar-24 07:33N 48°08' W 123°26'0 0.1
2015-Mar-24 06:30N 48°08' W 123°26'0 0.1
2015-Mar-24 05:27N 48°08' W 123°26'0 0.1
2015-Mar-24 04:33N 48°08' W 123°26'0 0.0
2015-Mar-24 03:24N 48°08' W 123°26'0 0.0
2015-Mar-24 02:30N 48°08' W 123°26'0 0.0
2015-Mar-24 01:30N 48°08' W 123°26'0 0.1
2015-Mar-24 00:33N 48°08' W 123°26'0 0.1
2015-Mar-23 23:27N 48°08' W 123°26'0 0.1
2015-Mar-23 22:30N 48°08' W 123°26'0 0.0
2015-Mar-23 21:33N 48°08' W 123°26'0 0.0
2015-Mar-23 20:33N 48°08' W 123°26'0 0.0
2015-Mar-23 19:33N 48°08' W 123°26'0 0.0
2015-Mar-23 18:30N 48°08' W 123°26'0 0.1
2015-Mar-23 17:33N 48°08' W 123°26'0 0.1
2015-Mar-23 16:33N 48°08' W 123°26'0 0.2
2015-Mar-23 15:29N 48°08' W 123°26'3 3.7
2015-Mar-23 14:33N 48°11' W 123°28'9 8.8
2015-Mar-23 13:34N 48°13' W 123°40'9 9.0
2015-Mar-23 12:34N 48°13' W 123°54'9 9.0
2015-Mar-23 11:34N 48°17' W 124°06'9 9.1
2015-Mar-23 10:33N 48°21' W 124°19'9 9.1
2015-Mar-23 09:34N 48°25' W 124°31'9 9.3
2015-Mar-23 08:34N 48°29' W 124°44'9 9.4
2015-Mar-23 07:33N 48°29' W 124°58'9 9.5
2015-Mar-23 06:33N 48°21' W 125°06'1010.0
2015-Mar-23 05:31N 48°11' W 125°11'  
2015-Mar-20 19:28N 38°50' W 124°52'9 9.6
2015-Mar-20 18:33N 38°41' W 124°48'10 9.6
2015-Mar-20 17:33N 38°32' W 124°44'10 9.6
2015-Mar-20 16:33N 38°24' W 124°39'10 9.6
2015-Mar-20 15:34N 38°16' W 124°32'9 9.1
2015-Mar-20 14:33N 38°10' W 124°23'1111.1
2015-Mar-20 13:33N 38°03' W 124°12'1111.4
2015-Mar-20 12:33N 37°55' W 124°01'1211.5
2015-Mar-20 11:33N 37°48' W 123°50'1111.5
2015-Mar-20 10:33N 37°40' W 123°40'1111.1
2015-Mar-20 09:33N 37°34' W 123°28'1211.5
2015-Mar-20 08:34N 37°34' W 123°13'1110.9
2015-Mar-20 07:33N 37°36' W 122°60'1211.7
2015-Mar-20 06:34N 37°42' W 122°48'1110.6
2015-Mar-20 05:33N 37°47' W 122°35'9 8.9
2015-Mar-20 04:33N 37°51' W 122°25'1010.0
2015-Mar-20 03:33N 38°01' W 122°24'1211.9
2015-Mar-20 02:33N 38°02' W 122°09'1 0.8
2015-Mar-20 01:29N 38°02' W 122°08'0 0.0
2015-Mar-19 21:11N 38°02' W 122°08'0 0.0
2015-Mar-19 20:29N 38°02' W 122°08'0 0.0
2015-Mar-19 19:29N 38°02' W 122°08'0 0.0
2015-Mar-19 18:29N 38°02' W 122°08'0 0.0
2015-Mar-19 17:29N 38°02' W 122°08'0 0.0
2015-Mar-19 14:05N 38°02' W 122°08'0 0.0
2015-Mar-19 13:11N 38°02' W 122°08'0 0.0
2015-Mar-19 12:11N 38°02' W 122°08'0 0.0
2015-Mar-19 11:17N 38°02' W 122°08'0 0.0
2015-Mar-19 10:17N 38°02' W 122°08'0 0.0
2015-Mar-19 09:29N 38°02' W 122°08'0 0.0
2015-Mar-19 08:29N 38°02' W 122°08'0 0.0
2015-Mar-19 07:29N 38°02' W 122°08'0 0.0
2015-Mar-19 06:29N 38°02' W 122°08'0 0.0
2015-Mar-19 05:29N 38°02' W 122°08'0 0.0
2015-Mar-19 04:23N 38°02' W 122°08'  
Track history (hours):
 
Tides and Currents Weather Stations Pressure Air Temp Water Temp Dewpoint Dewpoint Depression Visibility Wind Speed Wind Dir Waves Ship Positions

Vision

Owner: INTREPID SHIP MANAGEMENT, JACKSONVILLE, FL. More information available from US FCC via Universal Licensing System and Coast Guard Vessel Documentation Center.

Last reported at 2015-Mar-29 04:07 UTC. Time now 2015-Mar-29 06:10 UTC.
Position N 45°47' W 125°47'.

Length 199 m; draft 8.7 m.

Type: Towing. MMSI: 366904000.

Date/timePositionNaut miles runAvg speedWind from/ knotsBaromVisibWave heightAir tempDewpointWater temp
2015-Mar-29 04:07N 45°47' W 125°47'14910.1
2015-Mar-28 13:26N 48°14' W 125°18'9 9.7
2015-Mar-28 12:33N 48°21' W 125°10'10 9.9
2015-Mar-28 11:33N 48°29' W 125°03'9 8.7
2015-Mar-28 10:33N 48°31' W 124°50'9 8.7
2015-Mar-28 09:33N 48°29' W 124°37'9 9.2
2015-Mar-28 08:33N 48°25' W 124°24'1010.0
2015-Mar-28 07:33N 48°21' W 124°10'1110.5
2015-Mar-28 06:33N 48°17' W 123°56'1110.5
2015-Mar-28 05:30N 48°16' W 123°40'9 9.6
2015-Mar-28 04:33N 48°13' W 123°27'6 6.1
2015-Mar-28 03:33N 48°08' W 123°20'1010.0
2015-Mar-28 02:33N 48°15' W 123°09'1111.6
2015-Mar-28 01:33N 48°22' W 122°55'1212.4
2015-Mar-28 00:33N 48°31' W 122°42'5 5.0
2015-Mar-27 23:33N 48°31' W 122°35'0 0.0
2015-Mar-27 22:32N 48°31' W 122°35'0 0.0
2015-Mar-27 21:32N 48°31' W 122°35'0 0.0
2015-Mar-27 20:26N 48°31' W 122°35'0 0.0
2015-Mar-27 19:32N 48°31' W 122°35'0 0.0
2015-Mar-27 18:32N 48°31' W 122°35'0 0.0
2015-Mar-27 17:14N 48°31' W 122°35'0 0.0
2015-Mar-27 16:32N 48°31' W 122°35'0 0.0
2015-Mar-27 15:26N 48°31' W 122°35'0 0.0
2015-Mar-27 14:32N 48°31' W 122°35'0 0.0
2015-Mar-27 13:32N 48°31' W 122°35'0 0.0
2015-Mar-27 12:32N 48°31' W 122°35'0 0.0
2015-Mar-27 11:32N 48°31' W 122°35'0 0.0
2015-Mar-27 10:32N 48°31' W 122°35'0 0.0
2015-Mar-27 09:32N 48°31' W 122°35'0 0.0
2015-Mar-27 08:32N 48°31' W 122°35'0 0.0
2015-Mar-27 07:32N 48°31' W 122°35'0 0.0
2015-Mar-27 06:32N 48°31' W 122°35'0 0.0
2015-Mar-27 05:32N 48°31' W 122°35'0 0.0
2015-Mar-27 04:32N 48°31' W 122°35'0 0.0
2015-Mar-27 03:32N 48°31' W 122°35'0 0.0
2015-Mar-27 02:32N 48°31' W 122°35'0 0.0
2015-Mar-27 01:20N 48°31' W 122°35'0 0.0
2015-Mar-27 00:32N 48°31' W 122°35'0 0.0
2015-Mar-26 23:32N 48°31' W 122°35'0 0.0
2015-Mar-26 22:32N 48°31' W 122°35'0 0.0
2015-Mar-26 21:32N 48°31' W 122°35'0 0.0
2015-Mar-26 20:32N 48°31' W 122°35'0 0.0
2015-Mar-26 19:32N 48°31' W 122°35'0 0.0
2015-Mar-26 18:32N 48°31' W 122°35'0 0.0
2015-Mar-26 17:32N 48°31' W 122°35'0 0.0
2015-Mar-26 16:32N 48°31' W 122°35'0 0.0
2015-Mar-26 15:32N 48°31' W 122°35'0 0.0
2015-Mar-26 14:32N 48°31' W 122°35'0 0.0
2015-Mar-26 13:32N 48°31' W 122°35'0 0.0
2015-Mar-26 12:32N 48°31' W 122°35'0 0.0
2015-Mar-26 11:32N 48°31' W 122°35'0 0.0
2015-Mar-26 10:32N 48°31' W 122°35'0 0.0
2015-Mar-26 09:32N 48°31' W 122°35'0 0.0
2015-Mar-26 08:32N 48°31' W 122°35'0 0.0
2015-Mar-26 07:32N 48°31' W 122°35'0 0.0
2015-Mar-26 06:32N 48°31' W 122°35'0 0.0
2015-Mar-26 05:32N 48°31' W 122°35'0 0.0
2015-Mar-26 04:32N 48°31' W 122°35'0 0.0
2015-Mar-26 03:32N 48°31' W 122°35'0 0.0
2015-Mar-26 02:32N 48°31' W 122°35'0 0.0
2015-Mar-26 01:26N 48°31' W 122°35'0 0.0
2015-Mar-26 00:32N 48°31' W 122°35'0 0.0
2015-Mar-25 23:32N 48°31' W 122°35'0 0.0
2015-Mar-25 22:26N 48°31' W 122°35'0 0.0
2015-Mar-25 21:32N 48°31' W 122°35'0 0.0
2015-Mar-25 20:32N 48°31' W 122°35'0 0.0
2015-Mar-25 19:32N 48°31' W 122°35'0 0.0
2015-Mar-25 18:32N 48°31' W 122°35'0 0.0
2015-Mar-25 17:26N 48°31' W 122°35'0 0.0
2015-Mar-25 16:20N 48°31' W 122°35'0 0.0
2015-Mar-25 15:32N 48°31' W 122°35'0 0.0
2015-Mar-25 14:32N 48°31' W 122°35'0 0.0
2015-Mar-25 13:32N 48°31' W 122°35'0 0.0
2015-Mar-25 12:32N 48°31' W 122°35'0 0.0
2015-Mar-25 11:32N 48°31' W 122°35'0 0.0
2015-Mar-25 10:32N 48°31' W 122°35'0 0.0
2015-Mar-25 09:32N 48°31' W 122°35'0 0.0
2015-Mar-25 08:32N 48°31' W 122°35'0 0.0
2015-Mar-25 07:32N 48°31' W 122°35'0 0.0
2015-Mar-25 06:26N 48°31' W 122°35'0 0.0
2015-Mar-25 05:32N 48°31' W 122°35'0 0.0
2015-Mar-25 04:32N 48°31' W 122°35'0 0.0
2015-Mar-25 03:32N 48°31' W 122°35'0 0.0
2015-Mar-25 02:32N 48°31' W 122°35'0 0.0
2015-Mar-25 01:32N 48°31' W 122°35'0 0.0
2015-Mar-25 00:32N 48°31' W 122°35'0 0.0
2015-Mar-24 23:32N 48°31' W 122°35'0 0.0
2015-Mar-24 22:32N 48°31' W 122°35'0 0.0
2015-Mar-24 21:32N 48°31' W 122°35'0 0.0
2015-Mar-24 20:32N 48°31' W 122°35'0 0.0
2015-Mar-24 19:32N 48°31' W 122°35'0 0.0
2015-Mar-24 18:32N 48°31' W 122°35'0 0.0
2015-Mar-24 17:32N 48°31' W 122°35'0 0.0
2015-Mar-24 16:32N 48°31' W 122°35'0 0.0
2015-Mar-24 15:32N 48°31' W 122°35'0 0.0
2015-Mar-24 14:32N 48°31' W 122°35'3 2.6
2015-Mar-24 13:34N 48°31' W 122°38'1212.0
2015-Mar-24 12:34N 48°23' W 122°51'1313.1
2015-Mar-24 11:34N 48°15' W 123°08'1312.7
2015-Mar-24 10:33N 48°08' W 123°23'2 1.8
2015-Mar-24 09:33N 48°08' W 123°26'0 0.0
2015-Mar-24 08:33N 48°08' W 123°26'0 0.1
2015-Mar-24 07:33N 48°08' W 123°26'0 0.1
2015-Mar-24 06:30N 48°08' W 123°26'0 0.1
2015-Mar-24 05:27N 48°08' W 123°26'0 0.1
2015-Mar-24 04:33N 48°08' W 123°26'0 0.0
2015-Mar-24 03:24N 48°08' W 123°26'0 0.0
2015-Mar-24 02:30N 48°08' W 123°26'0 0.0
2015-Mar-24 01:30N 48°08' W 123°26'0 0.1
2015-Mar-24 00:33N 48°08' W 123°26'0 0.1
2015-Mar-23 23:27N 48°08' W 123°26'0 0.1
2015-Mar-23 22:30N 48°08' W 123°26'0 0.0
2015-Mar-23 21:33N 48°08' W 123°26'0 0.0
2015-Mar-23 20:33N 48°08' W 123°26'0 0.0
2015-Mar-23 19:33N 48°08' W 123°26'0 0.0
2015-Mar-23 18:30N 48°08' W 123°26'0 0.1
2015-Mar-23 17:33N 48°08' W 123°26'0 0.1
2015-Mar-23 16:33N 48°08' W 123°26'0 0.2
2015-Mar-23 15:29N 48°08' W 123°26'3 3.7
2015-Mar-23 14:33N 48°11' W 123°28'9 8.8
2015-Mar-23 13:34N 48°13' W 123°40'9 9.0
2015-Mar-23 12:34N 48°13' W 123°54'9 9.0
2015-Mar-23 11:34N 48°17' W 124°06'9 9.1
2015-Mar-23 10:33N 48°21' W 124°19'9 9.1
2015-Mar-23 09:34N 48°25' W 124°31'9 9.3
2015-Mar-23 08:34N 48°29' W 124°44'9 9.4
2015-Mar-23 07:33N 48°29' W 124°58'9 9.5
2015-Mar-23 06:33N 48°21' W 125°06'1010.0
2015-Mar-23 05:31N 48°11' W 125°11'  
2015-Mar-20 19:28N 38°50' W 124°52'9 9.6
2015-Mar-20 18:33N 38°41' W 124°48'10 9.6
2015-Mar-20 17:33N 38°32' W 124°44'10 9.6
2015-Mar-20 16:33N 38°24' W 124°39'10 9.6
2015-Mar-20 15:34N 38°16' W 124°32'9 9.1
2015-Mar-20 14:33N 38°10' W 124°23'1111.1
2015-Mar-20 13:33N 38°03' W 124°12'1111.4
2015-Mar-20 12:33N 37°55' W 124°01'1211.5
2015-Mar-20 11:33N 37°48' W 123°50'1111.5
2015-Mar-20 10:33N 37°40' W 123°40'1111.1
2015-Mar-20 09:33N 37°34' W 123°28'1211.5
2015-Mar-20 08:34N 37°34' W 123°13'1110.9
2015-Mar-20 07:33N 37°36' W 122°60'1211.7
2015-Mar-20 06:34N 37°42' W 122°48'1110.6
2015-Mar-20 05:33N 37°47' W 122°35'9 8.9
2015-Mar-20 04:33N 37°51' W 122°25'1010.0
2015-Mar-20 03:33N 38°01' W 122°24'1211.9
2015-Mar-20 02:33N 38°02' W 122°09'1 0.8
2015-Mar-20 01:29N 38°02' W 122°08'0 0.0
2015-Mar-19 21:11N 38°02' W 122°08'0 0.0
2015-Mar-19 20:29N 38°02' W 122°08'0 0.0
2015-Mar-19 19:29N 38°02' W 122°08'0 0.0
2015-Mar-19 18:29N 38°02' W 122°08'0 0.0
2015-Mar-19 17:29N 38°02' W 122°08'0 0.0
2015-Mar-19 14:05N 38°02' W 122°08'0 0.0
2015-Mar-19 13:11N 38°02' W 122°08'0 0.0
2015-Mar-19 12:11N 38°02' W 122°08'0 0.0
2015-Mar-19 11:17N 38°02' W 122°08'0 0.0
2015-Mar-19 10:17N 38°02' W 122°08'0 0.0
2015-Mar-19 09:29N 38°02' W 122°08'0 0.0
2015-Mar-19 08:29N 38°02' W 122°08'0 0.0
2015-Mar-19 07:29N 38°02' W 122°08'0 0.0
2015-Mar-19 06:29N 38°02' W 122°08'0 0.0
2015-Mar-19 05:29N 38°02' W 122°08'0 0.0
2015-Mar-19 04:23N 38°02' W 122°08'  

Dump ship's entire track history